createdAt,value
2019-03-27T00:00:43.967Z,29.47
2019-03-27T00:03:12.687Z,21.45
2019-03-27T00:05:41.449Z,25.93
2019-03-27T00:08:10.075Z,18.37
2019-03-27T00:10:38.759Z,28.53
2019-03-27T00:13:07.599Z,26.10
2019-03-27T00:15:36.141Z,15.33
2019-03-27T00:18:05.212Z,21.77
2019-03-27T00:20:33.946Z,23.20
2019-03-27T00:23:02.705Z,28.43
2019-03-27T00:25:31.270Z,28.50
2019-03-27T00:28:00.034Z,27.90
2019-03-27T00:30:28.746Z,30.53
2019-03-27T00:32:57.354Z,18.97
2019-03-27T00:35:26.047Z,21.35
2019-03-27T00:37:54.668Z,28.43
2019-03-27T00:40:23.284Z,20.73
2019-03-27T00:42:52.042Z,30.08
2019-03-27T00:45:26.362Z,16.97
2019-03-27T00:47:51.149Z,21.37
2019-03-27T00:50:19.776Z,22.67
2019-03-27T00:52:48.401Z,24.50
2019-03-27T00:55:17.047Z,17.50
2019-03-27T00:57:45.717Z,23.63
2019-03-27T01:00:29.249Z,20.57
2019-03-27T01:02:57.986Z,29.33
2019-03-27T01:05:26.711Z,27.47
2019-03-27T01:07:55.426Z,26.13
2019-03-27T01:10:24.145Z,21.97
2019-03-27T01:12:52.833Z,19.90
2019-03-27T01:15:21.509Z,31.70
2019-03-27T01:17:50.252Z,23.50
2019-03-27T01:20:18.967Z,28.23
2019-03-27T01:22:49.215Z,30.30
2019-03-27T01:25:17.915Z,24.70
2019-03-27T01:27:46.611Z,25.13
2019-03-27T01:30:16.453Z,31.97
2019-03-27T01:32:45.121Z,31.37
2019-03-27T01:35:13.980Z,30.07
2019-03-27T01:37:42.657Z,32.60
2019-03-27T01:40:11.540Z,20.27
2019-03-27T01:42:40.229Z,32.33
2019-03-27T01:45:10.179Z,26.50
2019-03-27T01:47:38.805Z,34.70
2019-03-27T01:50:08.038Z,21.90
2019-03-27T01:52:36.676Z,34.67
2019-03-27T01:55:07.241Z,18.00
2019-03-27T01:57:36.072Z,24.53
2019-03-27T02:00:07.403Z,37.53
2019-03-27T02:02:36.153Z,34.57
2019-03-27T02:05:07.392Z,23.98
2019-03-27T02:07:36.225Z,35.58
2019-03-27T02:10:09.514Z,18.20
2019-03-27T02:12:38.134Z,34.38
2019-03-27T02:15:09.994Z,21.30
2019-03-27T02:17:38.726Z,21.57
2019-03-27T02:20:08.171Z,31.23
2019-03-27T02:22:36.858Z,20.60
2019-03-27T02:25:07.405Z,26.50
2019-03-27T02:27:36.098Z,31.65
2019-03-27T02:30:07.621Z,32.23
2019-03-27T02:32:36.250Z,26.47
2019-03-27T02:35:07.394Z,17.93
2019-03-27T02:37:35.952Z,16.27
2019-03-27T02:40:07.412Z,22.40
2019-03-27T02:42:36.369Z,21.67
2019-03-27T02:45:06.794Z,19.25
2019-03-27T02:47:35.487Z,23.87
2019-03-27T02:50:05.930Z,27.10
2019-03-27T02:52:34.683Z,29.47
2019-03-27T02:55:03.697Z,26.67
2019-03-27T02:57:32.514Z,23.73
2019-03-27T03:00:01.200Z,25.73
2019-03-27T03:02:29.894Z,23.50
2019-03-27T03:04:58.618Z,27.27
2019-03-27T03:07:27.432Z,24.80
2019-03-27T03:09:56.192Z,25.37
2019-03-27T03:12:24.958Z,24.27
2019-03-27T03:14:53.598Z,30.30
2019-03-27T03:17:22.306Z,20.97
2019-03-27T03:19:51.104Z,22.97
2019-03-27T03:22:19.724Z,27.00
2019-03-27T03:24:48.460Z,18.83
2019-03-27T03:27:17.164Z,21.37
2019-03-27T03:29:46.001Z,13.90
2019-03-27T03:32:14.733Z,28.32
2019-03-27T03:34:43.512Z,24.73
2019-03-27T03:37:12.365Z,13.62
2019-03-27T03:39:41.103Z,16.53
2019-03-27T03:42:09.729Z,23.90
2019-03-27T03:44:38.455Z,19.43
2019-03-27T03:47:07.198Z,25.23
2019-03-27T03:49:35.943Z,25.63
2019-03-27T03:52:05.186Z,67.10
2019-03-27T03:54:33.944Z,71.37
2019-03-27T03:57:03.856Z,41.53
2019-03-27T03:59:34.302Z,37.27
2019-03-27T04:02:04.693Z,42.70
2019-03-27T04:04:35.656Z,34.33
2019-03-27T04:07:05.429Z,31.23
2019-03-27T04:09:34.177Z,48.30
2019-03-27T04:12:02.848Z,63.23
2019-03-27T04:14:31.628Z,32.47
2019-03-27T04:17:16.074Z,37.23
2019-03-27T04:19:30.780Z,21.97
2019-03-27T04:21:59.508Z,24.20
2019-03-27T04:24:28.192Z,34.50
2019-03-27T04:26:56.934Z,17.13
2019-03-27T04:29:25.693Z,14.87
2019-03-27T04:31:54.317Z,16.93
2019-03-27T04:34:22.868Z,17.73
2019-03-27T04:36:51.618Z,20.33
2019-03-27T04:39:20.308Z,17.80
2019-03-27T04:41:48.911Z,16.40
2019-03-27T04:44:17.473Z,21.45
2019-03-27T04:46:46.122Z,22.07
2019-03-27T04:49:14.856Z,25.00
2019-03-27T04:51:43.511Z,37.50
2019-03-27T04:54:12.233Z,32.50
2019-03-27T04:56:40.879Z,52.00
2019-03-27T04:59:09.645Z,50.53
2019-03-27T05:01:38.375Z,54.43
2019-03-27T05:04:08.134Z,50.43
2019-03-27T05:06:36.824Z,84.20
2019-03-27T05:09:08.573Z,44.03
2019-03-27T05:11:37.478Z,40.20
2019-03-27T05:14:06.309Z,23.13
2019-03-27T05:16:34.930Z,31.27
2019-03-27T05:19:03.655Z,27.13
2019-03-27T05:21:32.371Z,28.23
2019-03-27T05:24:01.167Z,19.50
2019-03-27T05:26:29.903Z,23.60
2019-03-27T05:28:58.610Z,17.10
2019-03-27T05:31:27.281Z,28.30
2019-03-27T05:33:55.993Z,20.50
2019-03-27T05:36:24.792Z,22.00
2019-03-27T05:38:53.539Z,37.20
2019-03-27T05:41:22.423Z,27.17
2019-03-27T05:43:51.139Z,22.47
2019-03-27T05:46:19.868Z,32.03
2019-03-27T05:48:48.677Z,18.00
2019-03-27T05:51:17.356Z,26.67
2019-03-27T05:53:45.988Z,24.43
2019-03-27T05:56:14.669Z,22.17
2019-03-27T05:58:43.375Z,22.00
2019-03-27T06:01:12.129Z,19.70
2019-03-27T06:03:40.882Z,30.30
2019-03-27T06:06:09.526Z,24.80
2019-03-27T06:08:38.184Z,19.80
2019-03-27T06:11:06.908Z,34.30
2019-03-27T06:13:35.636Z,21.30
2019-03-27T06:16:05.008Z,21.90
2019-03-27T06:18:33.652Z,22.20
2019-03-27T06:21:02.386Z,19.27
2019-03-27T06:23:31.075Z,17.13
2019-03-27T06:25:59.715Z,32.40
2019-03-27T06:28:28.580Z,27.10
2019-03-27T06:30:58.027Z,22.98
2019-03-27T06:33:26.738Z,27.30
2019-03-27T06:35:56.961Z,31.93
2019-03-27T06:38:25.780Z,23.77
2019-03-27T06:40:54.661Z,41.47
2019-03-27T06:43:23.456Z,19.60
2019-03-27T06:45:52.205Z,30.57
2019-03-27T06:48:26.272Z,24.20
2019-03-27T06:50:51.507Z,17.40
2019-03-27T06:53:20.294Z,13.07
2019-03-27T06:55:48.962Z,13.90
2019-03-27T06:58:17.577Z,8.80
2019-03-27T07:00:46.316Z,13.20
2019-03-27T07:03:15.063Z,8.58
2019-03-27T07:05:43.749Z,7.87
2019-03-27T07:08:12.512Z,8.88
2019-03-27T07:10:41.145Z,9.93
2019-03-27T07:13:09.817Z,12.50
2019-03-27T07:15:38.550Z,8.40
2019-03-27T07:18:07.395Z,8.87
2019-03-27T07:20:36.088Z,16.10
2019-03-27T07:23:04.798Z,14.17
2019-03-27T07:25:33.639Z,7.83
2019-03-27T07:28:02.243Z,9.93
2019-03-27T07:30:30.865Z,10.37
2019-03-27T07:32:59.527Z,13.43
2019-03-27T07:35:28.173Z,17.02
2019-03-27T07:37:56.899Z,16.10
2019-03-27T07:40:25.560Z,13.07
2019-03-27T07:42:54.196Z,11.67
2019-03-27T07:45:22.906Z,12.03
2019-03-27T07:47:51.584Z,17.03
2019-03-27T07:50:20.293Z,14.78
2019-03-27T07:52:48.966Z,19.33
2019-03-27T07:55:19.503Z,22.30
2019-03-27T07:57:48.046Z,16.80
2019-03-27T08:00:20.037Z,16.23
2019-03-27T08:02:48.835Z,14.30
2019-03-27T08:05:17.598Z,16.00
2019-03-27T08:07:47.225Z,10.80
2019-03-27T08:10:15.890Z,11.03
2019-03-27T08:12:44.659Z,14.57
2019-03-27T08:15:14.756Z,12.20
2019-03-27T08:17:43.487Z,8.63
2019-03-27T08:20:14.030Z,12.33
2019-03-27T08:22:42.730Z,22.13
2019-03-27T08:25:11.830Z,9.57
2019-03-27T08:27:41.972Z,10.40
2019-03-27T08:30:17.816Z,15.17
2019-03-27T08:32:46.589Z,17.97
2019-03-27T08:35:15.729Z,13.22
2019-03-27T08:37:44.411Z,21.47
2019-03-27T08:40:13.742Z,11.68
2019-03-27T08:42:42.447Z,21.00
2019-03-27T08:45:11.868Z,13.00
2019-03-27T08:47:40.611Z,14.63
2019-03-27T08:50:10.839Z,10.33
2019-03-27T08:52:39.522Z,14.57
2019-03-27T08:55:09.869Z,8.67
2019-03-27T08:57:38.663Z,9.73
2019-03-27T09:00:09.942Z,12.63
2019-03-27T09:02:38.784Z,8.60
2019-03-27T09:05:08.870Z,10.50
2019-03-27T09:07:37.572Z,11.30
2019-03-27T09:10:08.932Z,12.20
2019-03-27T09:12:37.875Z,9.13
2019-03-27T09:15:09.008Z,6.33
2019-03-27T09:17:37.826Z,9.80
2019-03-27T09:20:09.138Z,5.60
2019-03-27T09:22:37.895Z,4.13
2019-03-27T09:25:07.797Z,4.93
2019-03-27T09:27:36.436Z,6.57
2019-03-27T09:30:08.042Z,7.17
2019-03-27T09:32:36.906Z,6.93
2019-03-27T09:35:06.901Z,6.07
2019-03-27T09:37:35.630Z,5.83
2019-03-27T09:40:07.090Z,5.00
2019-03-27T09:42:35.830Z,6.50
2019-03-27T09:45:08.024Z,3.75
2019-03-27T09:47:36.973Z,5.47
2019-03-27T09:50:07.317Z,4.43
2019-03-27T09:52:36.014Z,9.00
2019-03-27T09:55:06.165Z,6.95
2019-03-27T09:57:34.898Z,4.10
2019-03-27T10:00:05.423Z,5.07
2019-03-27T10:02:34.138Z,5.40
2019-03-27T10:05:02.920Z,8.77
2019-03-27T10:07:31.704Z,6.50
2019-03-27T10:10:00.517Z,8.03
2019-03-27T10:12:29.311Z,7.60
2019-03-27T10:14:57.813Z,7.93
2019-03-27T10:17:26.505Z,8.43
2019-03-27T10:20:03.352Z,3.10
2019-03-27T10:22:25.521Z,9.07
2019-03-27T10:24:54.130Z,3.20
2019-03-27T10:27:22.864Z,9.83
2019-03-27T10:29:51.569Z,3.77
2019-03-27T10:32:20.313Z,4.77
2019-03-27T10:34:49.082Z,9.03
2019-03-27T10:37:17.790Z,4.90
2019-03-27T10:39:46.493Z,6.83
2019-03-27T10:42:15.124Z,4.35
2019-03-27T10:44:43.813Z,7.17
2019-03-27T10:47:12.515Z,4.70
2019-03-27T10:49:41.217Z,7.60
2019-03-27T10:52:09.911Z,4.80
2019-03-27T10:54:38.534Z,4.03
2019-03-27T10:57:07.450Z,10.30
2019-03-27T10:59:36.146Z,10.33
2019-03-27T11:02:05.302Z,5.92
2019-03-27T11:04:33.974Z,3.60
2019-03-27T11:07:02.697Z,12.30
2019-03-27T11:09:31.410Z,9.97
2019-03-27T11:12:00.049Z,9.00
2019-03-27T11:14:37.686Z,6.13
2019-03-27T11:16:59.244Z,6.30
2019-03-27T11:19:27.876Z,3.53
2019-03-27T11:21:56.525Z,3.30
2019-03-27T11:24:25.285Z,6.07
2019-03-27T11:26:54.000Z,5.93
2019-03-27T11:29:22.660Z,6.27
2019-03-27T11:31:51.434Z,4.37
2019-03-27T11:34:20.150Z,9.83
2019-03-27T11:36:48.930Z,3.50
2019-03-27T11:39:17.765Z,7.03
2019-03-27T11:41:46.462Z,4.00
2019-03-27T11:44:15.193Z,5.40
2019-03-27T11:46:43.925Z,5.87
2019-03-27T11:49:12.550Z,5.95
2019-03-27T11:51:41.372Z,4.70
2019-03-27T11:54:10.141Z,4.97
2019-03-27T11:56:38.769Z,4.20
2019-03-27T11:59:07.528Z,2.30
2019-03-27T12:01:41.976Z,3.13
2019-03-27T12:04:06.837Z,2.87
2019-03-27T12:06:35.471Z,3.17
2019-03-27T12:09:07.652Z,4.53
2019-03-27T12:11:36.624Z,6.30
2019-03-27T12:14:05.530Z,3.40
2019-03-27T12:16:34.231Z,3.13
2019-03-27T12:19:03.109Z,7.60
2019-03-27T12:21:31.757Z,4.90
2019-03-27T12:24:00.387Z,6.23
2019-03-27T12:26:29.071Z,3.63
2019-03-27T12:28:57.808Z,5.10
2019-03-27T12:31:26.556Z,2.83
2019-03-27T12:33:55.302Z,6.53
2019-03-27T12:36:23.973Z,4.90
2019-03-27T12:38:52.695Z,3.20
2019-03-27T12:41:21.335Z,4.20
2019-03-27T12:43:50.070Z,7.17
2019-03-27T12:46:18.812Z,3.47
2019-03-27T12:48:47.641Z,7.00
2019-03-27T12:51:16.272Z,4.80
2019-03-27T12:53:44.963Z,2.27
2019-03-27T12:56:13.739Z,2.80
2019-03-27T12:58:42.569Z,4.30
2019-03-27T13:01:11.311Z,8.57
2019-03-27T13:03:44.294Z,2.90
2019-03-27T13:06:18.502Z,3.10
2019-03-27T13:08:49.607Z,4.53
2019-03-27T13:11:18.574Z,10.55
2019-03-27T13:13:47.308Z,5.10
2019-03-27T13:16:15.876Z,4.33
2019-03-27T13:18:44.619Z,4.50
2019-03-27T13:21:25.582Z,5.17
2019-03-27T13:23:46.077Z,7.47
2019-03-27T13:26:14.824Z,5.00
2019-03-27T13:28:49.036Z,5.70
2019-03-27T13:31:14.031Z,9.00
2019-03-27T13:33:42.756Z,10.27
2019-03-27T13:36:11.487Z,8.60
2019-03-27T13:38:40.206Z,3.80
2019-03-27T13:41:08.988Z,5.60
2019-03-27T13:43:37.656Z,9.00
2019-03-27T13:46:06.348Z,6.50
2019-03-27T13:48:35.075Z,4.73
2019-03-27T13:51:03.730Z,6.13
2019-03-27T13:53:32.392Z,6.77
2019-03-27T13:56:01.226Z,4.50
2019-03-27T13:58:29.923Z,6.60
2019-03-27T14:00:58.885Z,8.40
2019-03-27T14:03:27.629Z,3.03
2019-03-27T14:05:56.277Z,8.67
2019-03-27T14:08:25.035Z,5.53
2019-03-27T14:10:53.647Z,5.90
2019-03-27T14:13:22.321Z,5.10
2019-03-27T14:15:51.144Z,6.63
2019-03-27T14:18:19.855Z,7.03
2019-03-27T14:20:48.442Z,8.63
2019-03-27T14:23:17.230Z,13.20
2019-03-27T14:25:45.957Z,6.57
2019-03-27T14:28:14.800Z,5.03
2019-03-27T14:30:52.257Z,8.53
2019-03-27T14:33:21.324Z,4.95
2019-03-27T14:35:50.045Z,3.83
2019-03-27T14:38:18.715Z,5.90
2019-03-27T14:40:47.456Z,5.60
2019-03-27T14:43:16.198Z,7.58
2019-03-27T14:45:44.868Z,11.20
2019-03-27T14:48:13.541Z,12.28
2019-03-27T14:50:42.178Z,8.63
2019-03-27T14:53:10.803Z,8.70
2019-03-27T14:55:39.472Z,8.13
2019-03-27T14:58:08.099Z,10.47
2019-03-27T15:00:36.972Z,7.93
2019-03-27T15:03:05.737Z,8.67
2019-03-27T15:05:34.435Z,6.93
2019-03-27T15:08:04.343Z,8.07
2019-03-27T15:10:33.525Z,7.50
2019-03-27T15:13:02.190Z,6.23
2019-03-27T15:15:30.911Z,7.33
2019-03-27T15:17:59.654Z,6.80
2019-03-27T15:20:28.395Z,8.03
2019-03-27T15:22:57.020Z,10.50
2019-03-27T15:25:25.693Z,7.10
2019-03-27T15:27:54.443Z,9.13
2019-03-27T15:30:23.186Z,8.50
2019-03-27T15:32:51.892Z,8.43
2019-03-27T15:35:20.759Z,8.63
2019-03-27T15:37:49.434Z,8.77
2019-03-27T15:40:20.950Z,7.80
2019-03-27T15:42:49.692Z,7.90
2019-03-27T15:45:18.322Z,10.50
2019-03-27T15:47:46.988Z,10.43
2019-03-27T15:50:15.650Z,11.63
2019-03-27T15:52:44.420Z,9.17
2019-03-27T15:55:13.245Z,6.90
2019-03-27T15:57:41.998Z,6.90
2019-03-27T16:00:11.615Z,12.55
2019-03-27T16:02:40.373Z,11.00
2019-03-27T16:05:09.259Z,9.13
2019-03-27T16:07:38.065Z,21.37
2019-03-27T16:10:07.477Z,6.47
2019-03-27T16:12:36.631Z,10.17
2019-03-27T16:15:08.791Z,12.27
2019-03-27T16:17:37.625Z,10.50
2019-03-27T16:20:07.964Z,10.80
2019-03-27T16:22:49.967Z,6.80
2019-03-27T16:25:09.558Z,11.63
2019-03-27T16:27:38.464Z,7.63
2019-03-27T16:30:08.791Z,8.27
2019-03-27T16:32:38.804Z,9.77
2019-03-27T16:35:09.086Z,9.63
2019-03-27T16:37:37.949Z,7.67
2019-03-27T16:40:07.726Z,17.80
2019-03-27T16:42:36.527Z,7.93
2019-03-27T16:45:07.931Z,19.27
2019-03-27T16:47:37.948Z,8.30
2019-03-27T16:50:09.100Z,8.67
2019-03-27T16:52:37.867Z,7.50
2019-03-27T16:55:09.243Z,7.37
2019-03-27T16:57:38.173Z,7.37
2019-03-27T17:00:09.009Z,7.63
2019-03-27T17:02:37.716Z,7.97
2019-03-27T17:05:09.174Z,9.13
2019-03-27T17:07:38.139Z,5.57
2019-03-27T17:10:09.096Z,8.23
2019-03-27T17:12:37.981Z,10.97
2019-03-27T17:15:09.896Z,5.07
2019-03-27T17:17:39.113Z,14.67
2019-03-27T17:20:10.747Z,10.27
2019-03-27T17:22:40.762Z,4.30
2019-03-27T17:25:15.538Z,7.80
2019-03-27T17:27:44.924Z,6.40
2019-03-27T17:30:14.255Z,3.23
2019-03-27T17:32:42.950Z,4.45
2019-03-27T17:35:13.266Z,6.23
2019-03-27T17:37:42.084Z,4.60
2019-03-27T17:40:12.317Z,4.73
2019-03-27T17:42:40.974Z,6.67
2019-03-27T17:45:09.945Z,6.42
2019-03-27T17:47:38.659Z,4.47
2019-03-27T17:50:08.252Z,7.80
2019-03-27T17:52:38.413Z,4.43
2019-03-27T17:55:10.918Z,5.33
2019-03-27T17:57:39.559Z,10.90
2019-03-27T18:00:10.537Z,4.33
2019-03-27T18:02:39.375Z,5.70
2019-03-27T18:05:08.349Z,8.90
2019-03-27T18:07:38.768Z,2.55
2019-03-27T18:10:20.940Z,6.33
2019-03-27T18:12:55.443Z,6.70
2019-03-27T18:15:39.466Z,6.65
2019-03-27T18:18:09.477Z,5.97
2019-03-27T18:20:51.480Z,6.97
2019-03-27T18:23:44.875Z,4.07
2019-03-27T18:26:15.090Z,4.60
2019-03-27T18:28:45.235Z,3.37
2019-03-27T18:31:29.503Z,5.03
2019-03-27T18:34:00.381Z,10.10
2019-03-27T18:36:30.308Z,6.03
2019-03-27T18:38:59.268Z,10.83
2019-03-27T18:41:28.334Z,7.97
2019-03-27T18:43:57.393Z,9.90
2019-03-27T18:46:35.830Z,5.63
2019-03-27T18:49:06.611Z,10.07
2019-03-27T18:51:35.332Z,13.47
2019-03-27T18:54:05.228Z,8.73
2019-03-27T18:56:33.890Z,17.77
2019-03-27T18:59:02.601Z,8.40
2019-03-27T19:01:31.276Z,12.07
2019-03-27T19:03:59.955Z,10.98
2019-03-27T19:06:28.775Z,11.63
2019-03-27T19:08:59.831Z,7.93
2019-03-27T19:11:28.463Z,7.63
2019-03-27T19:13:57.128Z,9.67
2019-03-27T19:16:26.372Z,13.40
2019-03-27T19:18:55.176Z,10.77
2019-03-27T19:21:23.942Z,10.53
2019-03-27T19:23:52.632Z,10.43
2019-03-27T19:26:21.786Z,10.03
2019-03-27T19:28:53.613Z,10.67
2019-03-27T19:31:21.952Z,8.40
2019-03-27T19:33:50.816Z,10.57
2019-03-27T19:36:19.445Z,8.97
2019-03-27T19:38:48.068Z,7.20
2019-03-27T19:41:18.412Z,9.53
2019-03-27T19:43:47.091Z,8.63
2019-03-27T19:46:16.042Z,11.70
2019-03-27T19:48:48.734Z,8.20
2019-03-27T19:51:30.865Z,12.23
2019-03-27T19:54:26.409Z,11.03
2019-03-27T19:56:47.474Z,11.80
2019-03-27T19:59:16.405Z,14.77
2019-03-27T20:01:45.128Z,10.13
2019-03-27T20:04:14.755Z,7.40
2019-03-27T20:06:43.462Z,7.87
2019-03-27T20:09:13.134Z,14.10
2019-03-27T20:11:41.991Z,16.07
2019-03-27T20:14:11.144Z,9.88
2019-03-27T20:16:39.912Z,13.47
2019-03-27T20:19:08.623Z,11.67
2019-03-27T20:21:38.395Z,18.90
2019-03-27T20:24:13.346Z,11.30
2019-03-27T20:26:42.185Z,12.10
2019-03-27T20:29:12.424Z,13.07
2019-03-27T20:31:41.431Z,14.70
2019-03-27T20:34:10.137Z,14.07
2019-03-27T20:36:39.415Z,13.30
2019-03-27T20:39:09.788Z,12.00
2019-03-27T20:41:38.551Z,14.65
2019-03-27T20:44:07.307Z,14.57
2019-03-27T20:46:36.013Z,13.23
2019-03-27T20:49:05.361Z,15.53
2019-03-27T20:51:34.042Z,13.20
2019-03-27T20:54:02.661Z,16.63
2019-03-27T20:56:31.371Z,19.87
2019-03-27T20:59:01.452Z,8.83
2019-03-27T21:01:30.685Z,12.43
2019-03-27T21:04:00.368Z,13.17
2019-03-27T21:06:29.108Z,13.40
2019-03-27T21:09:02.409Z,17.40
2019-03-27T21:11:34.505Z,15.77
2019-03-27T21:14:03.462Z,16.90
2019-03-27T21:16:32.488Z,19.30
2019-03-27T21:19:01.278Z,16.37
2019-03-27T21:21:29.943Z,17.10
2019-03-27T21:23:58.798Z,11.73
2019-03-27T21:26:27.693Z,17.10
2019-03-27T21:28:56.487Z,13.07
2019-03-27T21:31:25.156Z,14.10
2019-03-27T21:33:57.604Z,22.10
2019-03-27T21:36:25.243Z,20.97
2019-03-27T21:38:53.900Z,18.83
2019-03-27T21:41:22.684Z,18.17
2019-03-27T21:43:51.493Z,14.77
2019-03-27T21:46:20.314Z,17.33
2019-03-27T21:48:49.225Z,21.10
2019-03-27T21:51:18.061Z,21.10
2019-03-27T21:53:50.556Z,15.23
2019-03-27T21:56:17.180Z,26.02
2019-03-27T21:58:45.876Z,17.80
2019-03-27T22:01:14.582Z,13.10
2019-03-27T22:03:43.355Z,14.50
2019-03-27T22:06:12.113Z,24.10
2019-03-27T22:08:40.773Z,13.77
2019-03-27T22:11:09.534Z,10.93
2019-03-27T22:13:38.177Z,23.70
2019-03-27T22:16:06.896Z,18.70
2019-03-27T22:18:35.714Z,12.53
2019-03-27T22:21:04.981Z,22.02
2019-03-27T22:23:33.682Z,19.50
2019-03-27T22:26:02.303Z,26.13
2019-03-27T22:28:30.982Z,20.67
2019-03-27T22:30:59.693Z,18.80
2019-03-27T22:33:28.454Z,16.03
2019-03-27T22:35:57.163Z,17.93
2019-03-27T22:38:25.933Z,21.53
2019-03-27T22:40:54.772Z,21.63
2019-03-27T22:43:23.388Z,18.40
2019-03-27T22:45:52.102Z,15.00
2019-03-27T22:48:20.881Z,18.02
2019-03-27T22:50:49.642Z,18.40
2019-03-27T22:53:18.397Z,20.10
2019-03-27T22:55:50.061Z,29.10
2019-03-27T22:58:17.547Z,17.05
2019-03-27T23:00:50.838Z,26.10
2019-03-27T23:03:19.521Z,18.03
2019-03-27T23:05:48.215Z,15.73
2019-03-27T23:08:16.837Z,15.00
2019-03-27T23:10:45.563Z,24.57
2019-03-27T23:13:14.250Z,21.10
2019-03-27T23:15:43.023Z,23.30
2019-03-27T23:18:11.714Z,20.73
2019-03-27T23:20:40.493Z,18.43
2019-03-27T23:23:09.181Z,20.23
2019-03-27T23:25:37.870Z,19.83
2019-03-27T23:28:06.635Z,15.03
2019-03-27T23:30:35.273Z,20.95
2019-03-27T23:33:05.150Z,20.97
2019-03-27T23:35:33.857Z,19.90
2019-03-27T23:38:02.485Z,15.63
2019-03-27T23:40:31.220Z,16.97
2019-03-27T23:42:59.886Z,20.17
2019-03-27T23:45:29.147Z,26.00
2019-03-27T23:47:58.555Z,15.93
2019-03-27T23:50:27.242Z,19.03
2019-03-27T23:52:56.066Z,17.27
2019-03-27T23:55:24.862Z,27.60
2019-03-27T23:57:53.560Z,22.90
